Time;durP1;ratioP1;P1;durP2;ratioP2;P2;SDS_P1;SDS_P2;PMS_P1;PMS_P2;Temp;Humidity;BMP_temperature;BMP_pressure;BME280_temperature;BME280_humidity;BME280_pressure;Samples;Min_cycle;Max_cycle;Signal;HPM_P1;HPM_P2
2023/10/05 00:04:45;;;;;;;10.82;6.82;;;;;;;18.33;90.00;99391.19;5140409;27;20393;-93
2023/10/05 00:07:23;;;;;;;12.25;5.30;;;;;;;18.17;89.88;99363.25;5136680;27;20082;-94
2023/10/05 00:09:49;;;;;;;9.88;5.20;;;;;;;18.38;89.49;99381.06;5135858;27;20039;-93
2023/10/05 00:15:17;;;;;;;11.50;6.65;;;;;;;18.06;93.17;99379.94;5151135;27;20405;-93
2023/10/05 00:17:43;;;;;;;9.43;5.93;;;;;;;18.06;92.49;99375.44;5131953;27;20042;-92
2023/10/05 00:20:31;;;;;;;10.18;6.35;;;;;;;18.10;93.20;99378.84;5131968;27;20039;-91
2023/10/05 00:22:55;;;;;;;13.90;7.25;;;;;;;18.05;95.26;99395.22;5118251;27;20518;-92
2023/10/05 00:25:23;;;;;;;9.65;6.50;;;;;;;17.70;96.79;99353.81;5135001;27;20107;-92
2023/10/05 00:27:54;;;;;;;11.45;6.32;;;;;;;17.91;95.70;99376.16;5133890;27;20038;-92
2023/10/05 00:30:21;;;;;;;16.20;6.60;;;;;;;17.99;96.25;99390.13;5131753;27;20082;-92
2023/10/05 00:32:55;;;;;;;11.10;8.57;;;;;;;17.85;96.14;99363.88;5133810;27;20367;-93
2023/10/05 00:35:26;;;;;;;11.05;6.10;;;;;;;17.89;95.88;99353.84;5128474;27;20041;-93
2023/10/05 00:37:52;;;;;;;9.88;6.10;;;;;;;17.89;96.84;99379.84;5133608;27;20040;-92
2023/10/05 00:43:23;;;;;;;10.18;6.18;;;;;;;17.74;97.89;99367.97;5164776;27;20400;-94
2023/10/05 00:45:50;;;;;;;11.50;5.82;;;;;;;17.80;99.07;99387.41;5128373;28;20460;-92
2023/10/05 00:51:23;;;;;;;11.02;5.82;;;;;;;17.89;98.18;99380.75;5144176;27;20382;-90
2023/10/05 00:53:50;;;;;;;9.65;5.65;;;;;;;17.78;98.58;99367.78;5131888;27;20507;-92
2023/10/05 00:56:17;;;;;;;8.73;5.80;;;;;;;17.47;100.00;99367.44;5126330;27;20038;-92
2023/10/05 00:58:44;;;;;;;9.02;5.80;;;;;;;17.38;100.00;99347.22;5129798;27;20508;-92
2023/10/05 01:01:15;;;;;;;9.63;5.95;;;;;;;17.40;100.00;99338.16;5126606;27;20126;-93
2023/10/05 01:14:58;;;;;;;9.32;5.50;;;;;;;17.86;100.00;99360.22;5097596;27;20735;-92
2023/10/05 01:17:27;;;;;;;7.97;4.90;;;;;;;17.81;100.00;99345.22;5092946;28;20044;-94
2023/10/05 01:19:58;;;;;;;9.10;4.90;;;;;;;17.78;100.00;99357.03;5099678;28;20044;-92
2023/10/05 01:22:32;;;;;;;7.88;4.82;;;;;;;17.59;100.00;99337.31;5094128;28;20036;-92
2023/10/05 01:25:02;;;;;;;11.05;4.80;;;;;;;17.72;100.00;99357.31;5096615;28;20070;-93
2023/10/05 01:27:29;;;;;;;11.15;5.05;;;;;;;17.59;100.00;99329.25;5095722;28;20048;-91
2023/10/05 01:29:55;;;;;;;8.85;4.80;;;;;;;17.66;100.00;99349.50;5095152;28;20042;-93
2023/10/05 01:32:21;;;;;;;7.88;4.85;;;;;;;17.58;100.00;99341.78;5091582;28;20051;-92
2023/10/05 01:34:50;;;;;;;9.85;5.32;;;;;;;17.50;100.00;99332.34;5096808;28;20032;-94
2023/10/05 01:37:18;;;;;;;7.70;4.70;;;;;;;17.57;100.00;99342.75;5099023;28;20131;-91
2023/10/05 01:39:44;;;;;;;10.25;5.25;;;;;;;17.49;100.00;99338.66;5095716;28;20040;-94
2023/10/05 01:42:11;;;;;;;9.95;5.15;;;;;;;17.29;100.00;99310.88;5093228;28;20048;-92
2023/10/05 01:44:40;;;;;;;7.85;5.00;;;;;;;17.38;100.00;99333.78;5094283;28;20040;-92
2023/10/05 01:47:06;;;;;;;8.57;5.30;;;;;;;17.38;100.00;99358.84;5095090;28;20109;-92
2023/10/05 01:49:33;;;;;;;9.85;5.68;;;;;;;17.37;100.00;99349.06;5096604;28;20055;-92
2023/10/05 01:51:59;;;;;;;10.82;5.72;;;;;;;17.19;100.00;99329.22;5096498;28;20037;-93
2023/10/05 01:54:26;;;;;;;11.60;5.50;;;;;;;17.27;100.00;99338.78;5098252;28;20033;-93
2023/10/05 01:56:53;;;;;;;12.40;6.45;;;;;;;17.05;100.00;99307.50;5094847;28;20064;-94
2023/10/05 01:59:22;;;;;;;14.82;6.65;;;;;;;17.01;100.00;99338.13;5093731;28;20461;-91
2023/10/05 02:01:48;;;;;;;10.00;5.85;;;;;;;16.98;100.00;99317.66;5094335;28;20032;-92
2023/10/05 02:04:15;;;;;;;10.00;5.45;;;;;;;17.12;100.00;99333.16;5095057;28;20102;-93
2023/10/05 02:06:45;;;;;;;9.65;6.00;;;;;;;17.02;100.00;99313.91;5102260;28;20036;-93
2023/10/05 02:09:14;;;;;;;11.68;6.03;;;;;;;17.25;100.00;99350.47;5095117;28;20086;-94
2023/10/05 02:11:41;;;;;;;9.38;5.32;;;;;;;17.21;100.00;99334.56;5093586;28;20044;-91
2023/10/05 02:14:07;;;;;;;9.90;5.57;;;;;;;17.16;100.00;99326.69;5098076;28;20070;-94
2023/10/05 02:16:34;;;;;;;10.82;5.85;;;;;;;17.01;100.00;99312.13;5095004;27;20240;-93
2023/10/05 02:19:04;;;;;;;10.23;6.45;;;;;;;16.83;100.00;99303.09;5097843;28;20051;-92
2023/10/05 02:21:31;;;;;;;11.82;6.10;;;;;;;17.04;100.00;99338.88;5094417;28;20051;-93
2023/10/05 02:23:58;;;;;;;12.35;6.53;;;;;;;16.96;100.00;99330.28;5095345;28;20033;-92
2023/10/05 02:26:27;;;;;;;11.60;7.28;;;;;;;16.84;100.00;99304.81;5081742;28;20478;-94
2023/10/05 02:28:55;;;;;;;12.68;6.20;;;;;;;16.87;100.00;99306.50;5080322;28;20087;-92
2023/10/05 02:31:21;;;;;;;13.18;6.63;;;;;;;16.90;100.00;99309.06;5079069;28;20042;-93
2023/10/05 02:33:52;;;;;;;14.38;6.65;;;;;;;17.07;100.00;99353.09;5079705;28;20055;-93
2023/10/05 02:36:21;;;;;;;12.00;6.85;;;;;;;16.84;100.00;99320.06;5081219;28;20032;-93
2023/10/05 02:38:54;;;;;;;12.30;6.60;;;;;;;16.84;100.00;99320.06;5079934;28;20041;-93
2023/10/05 02:41:25;;;;;;;10.80;6.25;;;;;;;16.78;100.00;99328.34;5083280;28;20048;-92
2023/10/05 02:43:52;;;;;;;11.38;6.57;;;;;;;16.69;100.00;99324.25;5079145;28;20702;-92
2023/10/05 02:46:20;;;;;;;13.27;7.35;;;;;;;16.93;100.00;99354.56;5075977;28;20040;-93
2023/10/05 02:48:45;;;;;;;11.70;7.60;;;;;;;16.77;100.00;99324.81;5082278;28;20052;-92
2023/10/05 02:51:15;;;;;;;12.55;7.70;;;;;;;16.54;100.00;99293.56;5081167;28;20044;-93
2023/10/05 02:53:41;;;;;;;11.90;7.50;;;;;;;16.83;100.00;99337.13;5079002;28;20039;-94
2023/10/05 02:56:17;;;;;;;13.73;7.47;;;;;;;16.99;100.00;99361.50;5081177;28;20060;-93
2023/10/05 02:58:44;;;;;;;13.48;8.13;;;;;;;16.81;100.00;99337.19;5080231;28;20037;-94
2023/10/05 03:01:10;;;;;;;12.80;7.68;;;;;;;16.98;100.00;99355.28;5076805;28;20314;-92
2023/10/05 03:03:36;;;;;;;12.60;7.88;;;;;;;16.72;100.00;99313.41;5081885;28;20533;-92
2023/10/05 03:06:04;;;;;;;11.90;7.82;;;;;;;16.85;100.00;99327.19;5077916;28;20127;-93
2023/10/05 03:08:35;;;;;;;13.00;8.50;;;;;;;16.80;100.00;99329.19;5080655;28;20044;-93
2023/10/05 03:11:01;;;;;;;15.00;8.57;;;;;;;16.81;100.00;99326.44;5079146;28;20066;-93
2023/10/05 03:13:27;;;;;;;14.48;8.70;;;;;;;16.90;100.00;99340.44;5080099;28;20408;-93
2023/10/05 03:15:54;;;;;;;17.52;10.00;;;;;;;16.87;100.00;99341.41;5076472;28;20041;-92
2023/10/05 03:18:20;;;;;;;15.88;10.15;;;;;;;17.00;100.00;99353.41;5079938;28;20047;-93
2023/10/05 03:20:46;;;;;;;20.55;10.60;;;;;;;16.77;100.00;99318.56;5079875;28;20033;-94
2023/10/05 03:23:14;;;;;;;16.05;9.95;;;;;;;16.93;100.00;99342.97;5080830;28;20767;-93
2023/10/05 03:25:41;;;;;;;19.00;9.77;;;;;;;16.94;100.00;99348.28;5076207;28;20040;-93
2023/10/05 03:28:07;;;;;;;16.27;8.57;;;;;;;16.94;100.00;99336.66;5079182;28;20040;-92
2023/10/05 03:30:35;;;;;;;13.43;8.40;;;;;;;16.88;100.00;99327.06;5077384;28;20051;-89
2023/10/05 03:33:01;;;;;;;12.90;8.27;;;;;;;16.80;100.00;99337.25;5082499;28;20036;-94
2023/10/05 03:35:27;;;;;;;14.82;8.07;;;;;;;16.88;100.00;99343.16;5080580;28;20036;-93
2023/10/05 03:37:54;;;;;;;15.57;8.25;;;;;;;16.64;100.00;99312.84;5083731;28;20044;-93
2023/10/05 03:40:22;;;;;;;16.27;9.55;;;;;;;16.84;100.00;99353.16;5081843;28;20668;-92
2023/10/05 03:42:57;;;;;;;16.38;9.48;;;;;;;16.73;100.00;99346.50;5077672;28;20032;-92
2023/10/05 03:45:23;;;;;;;17.83;9.88;;;;;;;16.66;100.00;99342.34;5078380;28;20047;-93
2023/10/05 03:47:49;;;;;;;14.88;9.07;;;;;;;16.55;100.00;99308.75;5077674;28;20124;-93
2023/10/05 03:50:16;;;;;;;14.40;9.63;;;;;;;16.44;100.00;99305.66;5078419;28;20077;-92
2023/10/05 03:52:44;;;;;;;14.35;9.20;;;;;;;16.39;100.00;99313.91;5078681;28;20131;-92
2023/10/05 03:55:11;;;;;;;18.42;8.77;;;;;;;16.54;100.00;99344.56;5077070;28;20036;-91
2023/10/05 03:57:37;;;;;;;15.50;8.57;;;;;;;16.66;100.00;99348.56;5078694;28;20037;-91
2023/10/05 04:03:06;;;;;;;14.05;8.02;;;;;;;16.56;100.00;99336.47;5090593;27;20406;-92
2023/10/05 04:05:33;;;;;;;17.65;9.77;;;;;;;16.61;100.00;99366.66;5088787;28;20050;-93
2023/10/05 04:08:10;;;;;;;19.33;9.68;;;;;;;16.51;100.00;99354.59;5088860;28;20036;-92
2023/10/05 04:13:37;;;;;;;17.30;9.73;;;;;;;16.53;100.00;99363.47;5089963;27;20390;-92
2023/10/05 04:16:09;;;;;;;16.60;8.43;;;;;;;16.34;100.00;99345.41;5087601;28;20500;-92
2023/10/05 04:18:35;;;;;;;16.33;9.20;;;;;;;16.33;100.00;99350.84;5087135;28;20033;-91
2023/10/05 04:21:01;;;;;;;18.23;10.18;;;;;;;16.31;100.00;99350.94;5089038;28;20119;-92
2023/10/05 04:23:28;;;;;;;17.67;9.55;;;;;;;16.26;100.00;99349.34;5086548;28;20040;-92
2023/10/05 04:25:56;;;;;;;17.02;9.95;;;;;;;16.40;100.00;99376.50;5089465;28;20987;-93
2023/10/05 04:31:25;;;;;;;18.10;10.27;;;;;;;16.43;100.00;99379.06;5134772;27;20404;-93
2023/10/05 04:33:51;;;;;;;18.08;10.02;;;;;;;16.28;100.00;99368.94;5105907;28;20148;-91
2023/10/05 04:36:17;;;;;;;18.92;10.65;;;;;;;16.21;100.00;99358.47;5104704;28;20100;-93
2023/10/05 04:38:44;;;;;;;18.17;10.25;;;;;;;16.31;100.00;99379.56;5103445;28;20040;-92
2023/10/05 04:41:13;;;;;;;18.38;10.98;;;;;;;16.41;100.00;99399.72;5102811;28;20118;-92
2023/10/05 04:43:38;;;;;;;17.25;10.18;;;;;;;16.08;100.00;99356.34;5097693;28;20048;-92
2023/10/05 04:46:07;;;;;;;20.02;11.20;;;;;;;16.13;100.00;99365.94;5103970;28;20047;-92
2023/10/05 04:48:34;;;;;;;20.75;11.52;;;;;;;16.18;100.00;99372.03;5105239;28;20036;-90
2023/10/05 04:51:01;;;;;;;18.80;11.50;;;;;;;16.37;100.00;99398.09;5097264;28;20060;-92
2023/10/05 04:53:27;;;;;;;20.15;11.27;;;;;;;16.16;100.00;99360.47;5138216;27;20047;-92
2023/10/05 04:56:10;;;;;;;21.15;10.40;;;;;;;16.27;100.00;99381.50;5105576;28;20047;-92
2023/10/05 05:01:29;;;;;;;17.60;10.38;;;;;;;16.21;100.00;99397.84;5082823;28;20374;-92
2023/10/05 05:04:12;;;;;;;17.67;10.75;;;;;;;16.16;100.00;99390.00;5104855;28;20477;-92
2023/10/05 05:06:41;;;;;;;21.85;10.32;;;;;;;16.15;100.00;99361.38;5104107;28;20489;-92
2023/10/05 05:09:12;;;;;;;23.15;10.85;;;;;;;16.13;100.00;99370.44;5103840;28;20145;-93
2023/10/05 05:11:38;;;;;;;21.00;11.95;;;;;;;16.10;100.00;99360.72;5103428;28;20040;-93
2023/10/05 05:14:07;;;;;;;18.55;10.70;;;;;;;16.05;100.00;99349.31;5102494;28;20048;-93
2023/10/05 05:16:34;;;;;;;17.58;10.00;;;;;;;16.11;100.00;99373.22;5096890;28;20051;-93
2023/10/05 05:19:02;;;;;;;18.70;10.63;;;;;;;15.89;100.00;99349.03;5107075;28;20147;-92
2023/10/05 05:21:27;;;;;;;18.98;10.07;;;;;;;16.10;100.00;99389.34;5101381;28;20497;-92
2023/10/05 05:23:54;;;;;;;16.90;9.57;;;;;;;16.16;100.00;99399.84;5104637;28;20052;-94
2023/10/05 05:26:20;;;;;;;17.77;9.88;;;;;;;15.85;100.00;99346.53;5102116;28;20147;-92
2023/10/05 05:28:47;;;;;;;17.58;10.30;;;;;;;15.99;100.00;99385.28;5104364;28;20686;-94
2023/10/05 05:31:16;;;;;;;22.25;10.25;;;;;;;15.99;100.00;99400.50;5106215;28;20083;-93
2023/10/05 05:33:43;;;;;;;18.35;10.30;;;;;;;15.91;100.00;99389.19;5104982;28;20046;-93
2023/10/05 05:36:13;;;;;;;21.45;11.40;;;;;;;16.11;100.00;99404.50;5138060;27;20548;-92
2023/10/05 05:38:39;;;;;;;20.60;10.38;;;;;;;15.86;100.00;99367.94;5100430;28;20036;-92
2023/10/05 05:41:16;;;;;;;18.60;10.02;;;;;;;16.09;100.00;99403.69;5130610;27;20509;-92
2023/10/05 05:43:42;;;;;;;19.17;9.68;;;;;;;16.12;100.00;99414.31;5084664;28;20051;-93
2023/10/05 05:46:11;;;;;;;22.88;10.93;;;;;;;16.20;100.00;99426.50;5087474;28;20025;-92
2023/10/05 05:48:38;;;;;;;15.68;9.70;;;;;;;16.14;100.00;99412.47;5084632;28;20071;-92
2023/10/05 05:51:06;;;;;;;16.95;8.90;;;;;;;16.11;100.00;99405.41;5124657;27;20518;-92
2023/10/05 05:53:34;;;;;;;21.58;9.77;;;;;;;16.32;100.00;99440.34;5086739;28;20448;-93
2023/10/05 05:56:01;;;;;;;15.68;8.30;;;;;;;16.05;100.00;99394.91;5090513;28;20045;-91
2023/10/05 05:58:27;;;;;;;16.42;8.70;;;;;;;16.21;100.00;99408.59;5088551;28;20047;-92
2023/10/05 06:00:54;;;;;;;16.27;8.38;;;;;;;16.23;100.00;99399.53;5088122;28;20113;-92
2023/10/05 06:03:20;;;;;;;17.88;9.38;;;;;;;16.33;100.00;99399.16;5092291;28;20097;-92
2023/10/05 06:05:48;;;;;;;15.32;8.43;;;;;;;16.38;100.00;99403.41;5082081;28;20544;-92
2023/10/05 06:08:16;;;;;;;16.13;9.32;;;;;;;16.52;100.00;99415.38;5088111;28;20037;-93
2023/10/05 06:10:46;;;;;;;19.13;9.13;;;;;;;16.50;100.00;99411.88;5128213;27;20553;-92
2023/10/05 06:13:13;;;;;;;14.73;8.30;;;;;;;16.40;100.00;99390.81;5090078;28;20666;-93
2023/10/05 06:15:39;;;;;;;20.45;9.77;;;;;;;16.52;100.00;99396.59;5086531;28;20538;-93
2023/10/05 06:18:05;;;;;;;17.80;9.50;;;;;;;16.48;100.00;99376.19;5119043;27;20044;-93
2023/10/05 06:20:31;;;;;;;14.95;8.95;;;;;;;16.60;100.00;99383.72;5088806;28;20040;-93
2023/10/05 06:22:58;;;;;;;16.88;9.00;;;;;;;17.08;100.00;99443.53;5088674;28;20400;-92
2023/10/05 06:25:25;;;;;;;24.00;10.02;;;;;;;16.83;100.00;99393.53;5088371;28;20040;-93
2023/10/05 06:27:52;;;;;;;18.73;10.35;;;;;;;17.18;100.00;99445.75;5087218;28;20047;-94
2023/10/05 06:30:20;;;;;;;17.02;9.55;;;;;;;17.21;100.00;99436.69;5087198;28;20040;-93
2023/10/05 06:32:47;;;;;;;18.80;9.63;;;;;;;17.29;100.00;99425.59;5090861;28;20131;-92
2023/10/05 06:35:13;;;;;;;18.40;10.10;;;;;;;17.43;100.00;99437.47;5088870;28;20044;-94
2023/10/05 06:37:39;;;;;;;17.38;9.50;;;;;;;17.39;100.00;99419.75;5086662;28;20493;-93
2023/10/05 06:40:13;;;;;;;17.65;9.35;;;;;;;17.69;100.00;99454.25;5092997;28;20127;-93
2023/10/05 06:42:41;;;;;;;15.73;9.90;;;;;;;17.69;100.00;99421.97;5090172;28;20044;-93
2023/10/05 06:45:11;;;;;;;16.85;9.68;;;;;;;17.84;100.00;99441.97;5089341;28;20082;-93
2023/10/05 06:47:37;;;;;;;18.40;10.90;;;;;;;17.44;100.00;99415.03;5109545;28;20040;-93
2023/10/05 06:50:08;;;;;;;19.50;10.55;;;;;;;17.48;100.00;99396.06;5087866;28;20401;-92
2023/10/05 06:52:36;;;;;;;20.45;11.02;;;;;;;17.52;100.00;99413.81;5088079;28;20545;-92
2023/10/05 06:55:07;;;;;;;20.08;11.07;;;;;;;17.81;100.00;99453.72;5088221;28;20489;-93
2023/10/05 06:57:35;;;;;;;18.55;11.02;;;;;;;18.12;100.00;99459.53;5085678;28;20040;-93
2023/10/05 07:00:11;;;;;;;21.08;11.25;;;;;;;18.21;100.00;99441.09;5088126;28;20127;-94
2023/10/05 07:02:39;;;;;;;20.55;13.32;;;;;;;18.20;100.00;99451.97;5085125;28;21408;-92
2023/10/05 07:05:06;;;;;;;25.27;11.93;;;;;;;18.51;100.00;99453.19;5079842;28;20052;-93
2023/10/05 07:07:32;;;;;;;21.65;11.80;;;;;;;18.54;100.00;99440.44;5086976;28;20032;-93
2023/10/05 07:09:58;;;;;;;17.90;11.00;;;;;;;18.90;100.00;99458.44;5090028;28;20040;-92
2023/10/05 07:12:24;;;;;;;20.73;10.93;;;;;;;19.07;100.00;99453.06;5086613;28;20039;-94
2023/10/05 07:14:50;;;;;;;25.20;12.32;;;;;;;18.96;100.00;99408.75;5094392;28;20040;-92
2023/10/05 07:17:16;;;;;;;20.45;11.40;;;;;;;19.35;100.00;99450.78;5092436;28;20385;-91
2023/10/05 07:19:48;;;;;;;18.58;10.57;;;;;;;19.29;100.00;99420.47;5083322;28;20075;-91
2023/10/05 07:22:14;;;;;;;22.58;10.50;;;;;;;19.41;100.00;99428.88;5089445;28;20510;-92
2023/10/05 07:24:41;;;;;;;21.88;10.85;;;;;;;19.74;100.00;99455.94;5085348;28;20039;-93
2023/10/05 07:27:07;;;;;;;19.05;10.48;;;;;;;19.67;100.00;99419.41;5083040;28;20041;-93
2023/10/05 07:29:33;;;;;;;20.70;10.10;;;;;;;19.78;100.00;99410.72;5084096;28;20048;-92
2023/10/05 07:31:59;;;;;;;16.92;10.07;;;;;;;19.78;100.00;99410.72;5088414;28;20070;-91
2023/10/05 07:34:26;;;;;;;17.75;10.02;;;;;;;19.76;100.00;99437.81;5089847;28;20028;-92
2023/10/05 07:36:54;;;;;;;17.42;10.27;;;;;;;19.69;100.00;99468.75;5088498;28;20119;-92
2023/10/05 07:39:23;;;;;;;17.60;10.27;;;;;;;19.45;100.00;99438.53;5088503;28;20490;-92
2023/10/05 07:41:49;;;;;;;18.98;10.98;;;;;;;19.67;100.00;99420.28;5087196;28;20094;-93
2023/10/05 07:44:15;;;;;;;19.73;10.68;;;;;;;19.66;100.00;99407.72;5124949;27;20055;-93
2023/10/05 07:46:43;;;;;;;20.08;10.45;;;;;;;20.40;100.00;99471.19;5087418;28;20493;-92
2023/10/05 07:49:10;;;;;;;16.58;9.98;;;;;;;20.39;100.00;99422.66;5086369;28;20041;-93
2023/10/05 07:51:36;;;;;;;17.50;10.45;;;;;;;20.78;100.00;99464.59;5089102;28;20050;-93
2023/10/05 07:54:03;;;;;;;19.05;10.27;;;;;;;20.68;100.00;99451.59;5096344;28;20032;-92
2023/10/05 07:56:32;;;;;;;19.13;10.80;;;;;;;20.28;100.00;99416.03;5090793;28;20067;-93
2023/10/05 07:58:58;;;;;;;16.77;10.48;;;;;;;20.75;100.00;99449.41;5090675;28;20064;-93
2023/10/05 08:01:25;;;;;;;16.77;10.10;;;;;;;21.07;100.00;99454.75;5091074;28;20553;-94
2023/10/05 08:03:52;;;;;;;17.05;9.55;;;;;;;21.37;100.00;99475.53;5089041;28;20036;-91
2023/10/05 08:06:18;;;;;;;13.98;8.73;;;;;;;21.45;100.00;99467.88;5096271;28;20078;-93
2023/10/05 08:08:44;;;;;;;14.60;9.93;;;;;;;21.27;100.00;99459.84;5097346;28;20055;-93
2023/10/05 08:11:15;;;;;;;15.88;9.27;;;;;;;20.92;100.00;99448.44;5093776;28;20067;-94
2023/10/05 08:13:41;;;;;;;15.32;9.57;;;;;;;21.05;100.00;99444.03;5090363;28;20035;-94
2023/10/05 08:16:08;;;;;;;15.55;10.10;;;;;;;20.61;100.00;99460.16;5087034;28;20508;-93
2023/10/05 08:18:34;;;;;;;18.38;10.50;;;;;;;21.15;100.00;99473.25;5096930;28;20040;-93
2023/10/05 08:21:00;;;;;;;17.15;9.73;;;;;;;21.47;100.00;99465.91;5097379;28;20042;-93
2023/10/05 08:23:28;;;;;;;18.70;10.57;;;;;;;21.76;100.00;99472.25;5096458;28;20064;-93
2023/10/05 08:25:57;;;;;;;17.42;10.07;;;;;;;21.92;100.00;99470.34;5096749;28;20485;-93
2023/10/05 08:28:24;;;;;;;18.63;9.70;;;;;;;21.87;100.00;99452.63;5097265;28;20038;-93
2023/10/05 08:31:05;;;;;;;15.82;9.40;;;;;;;22.27;100.00;99478.13;5095283;28;20067;-93
2023/10/05 08:33:33;;;;;;;18.55;9.77;;;;;;;22.27;100.00;99491.66;5094081;28;20051;-92
2023/10/05 08:36:00;;;;;;;13.38;8.55;;;;;;;22.09;100.00;99466.56;5096171;28;20028;-93
2023/10/05 08:38:25;;;;;;;16.05;9.23;;;;;;;22.33;100.00;99455.16;5096840;28;20035;-95
2023/10/05 08:40:52;;;;;;;12.57;7.72;;;;;;;22.38;100.00;99444.00;5095738;28;20061;-93
2023/10/05 08:43:19;;;;;;;18.80;7.75;;;;;;;21.99;100.00;99423.91;5096012;28;20117;-93
2023/10/05 08:45:51;;;;;;;12.35;6.95;;;;;;;22.19;100.00;99420.81;5095036;28;20044;-93
2023/10/05 08:48:19;;;;;;;11.88;7.90;;;;;;;22.79;100.00;99470.25;5095697;28;20043;-92
2023/10/05 08:50:49;;;;;;;12.15;7.38;;;;;;;22.85;100.00;99462.56;5099863;28;20085;-92
2023/10/05 08:53:19;;;;;;;12.52;6.65;;;;;;;23.12;99.45;99478.88;5097282;28;20050;-94
2023/10/05 08:55:49;;;;;;;16.60;7.82;;;;;;;23.16;99.07;99466.84;5097128;28;20042;-92
2023/10/05 08:58:18;;;;;;;12.82;6.78;;;;;;;23.28;98.32;99492.25;5097119;28;20126;-92
2023/10/05 09:00:45;;;;;;;10.95;7.38;;;;;;;23.49;97.24;99489.06;5096207;28;20031;-93
2023/10/05 09:06:13;;;;;;;12.50;6.97;;;;;;;23.29;97.14;99469.59;5188308;27;20382;-94
2023/10/05 09:08:51;;;;;;;13.55;7.13;;;;;;;23.63;96.05;99479.97;5150101;27;20043;-94
2023/10/05 09:11:27;;;;;;;16.70;6.90;;;;;;;23.73;97.05;99479.22;5149185;27;20035;-93
2023/10/05 09:13:53;;;;;;;11.55;7.47;;;;;;;23.78;94.32;99473.47;5148090;27;20484;-93
2023/10/05 09:16:30;;;;;;;10.68;6.80;;;;;;;23.97;94.55;99494.78;5149733;27;20052;-93
2023/10/05 09:18:57;;;;;;;13.27;7.45;;;;;;;23.88;92.94;99488.16;5152853;27;20039;-95
2023/10/05 09:21:42;;;;;;;10.80;7.15;;;;;;;24.06;94.63;99480.53;5149209;27;20049;-93
2023/10/05 09:24:19;;;;;;;11.80;7.38;;;;;;;24.25;92.85;99493.69;5150886;27;20413;-94
2023/10/05 09:26:50;;;;;;;9.75;6.57;;;;;;;24.34;91.49;99487.56;5147313;27;20039;-93
2023/10/05 09:29:20;;;;;;;12.40;6.90;;;;;;;24.29;89.82;99475.28;5150257;27;20122;-93
2023/10/05 09:31:50;;;;;;;12.30;7.40;;;;;;;24.36;88.77;99499.22;5150754;27;20059;-94
2023/10/05 09:34:19;;;;;;;10.25;6.45;;;;;;;24.38;88.07;99478.22;5151469;27;20506;-93
2023/10/05 09:36:47;;;;;;;12.15;6.90;;;;;;;23.69;91.73;99450.53;5150646;27;20038;-93
2023/10/05 09:39:15;;;;;;;11.57;6.70;;;;;;;24.36;91.08;99491.06;5148306;27;20050;-94
2023/10/05 09:41:44;;;;;;;13.65;7.15;;;;;;;24.54;88.96;99490.72;5147161;27;20050;-93
2023/10/05 09:44:11;;;;;;;;;;;;;;;24.69;88.80;99495.03;5152318;27;20035;-93
2023/10/05 09:46:37;;;;;;;13.93;6.88;;;;;;;24.75;87.92;99482.84;5147028;27;19923;-94
2023/10/05 09:49:06;;;;;;;10.98;6.20;;;;;;;24.66;84.29;99469.91;5150689;27;20040;-95
2023/10/05 09:51:35;;;;;;;11.90;7.10;;;;;;;24.55;85.74;99482.47;5144293;27;20038;-95
2023/10/05 09:54:08;;;;;;;14.80;6.40;;;;;;;24.87;84.24;99476.47;5147852;27;20126;-91
2023/10/05 09:56:34;;;;;;;10.95;6.55;;;;;;;25.06;83.68;99495.00;5151183;27;20450;-93
2023/10/05 09:59:00;;;;;;;9.63;6.38;;;;;;;25.19;83.61;99490.38;5147136;27;20073;-94
2023/10/05 10:01:30;;;;;;;11.23;6.65;;;;;;;25.20;82.22;99477.66;5149153;27;20060;-95
2023/10/05 10:03:56;;;;;;;11.50;6.78;;;;;;;25.14;81.87;99459.03;5145302;27;20036;-94
2023/10/05 10:06:28;;;;;;;9.63;5.78;;;;;;;25.30;82.28;99477.81;5149991;27;20034;-93
2023/10/05 10:09:00;;;;;;;9.13;6.63;;;;;;;24.96;71.53;99459.47;5149611;27;20065;-93
2023/10/05 10:11:31;;;;;;;10.52;7.38;;;;;;;25.19;69.33;99474.06;5149510;27;20449;-91
2023/10/05 10:14:03;;;;;;;10.32;6.22;;;;;;;25.14;67.96;99478.97;5144676;27;20142;-93
2023/10/05 10:16:32;;;;;;;12.00;6.55;;;;;;;25.17;67.12;99459.66;5138944;27;20051;-94
2023/10/05 10:19:04;;;;;;;;;;;;;;;25.26;66.67;99470.88;5136615;27;20035;-93
2023/10/05 10:21:34;;;;;;;13.10;7.35;;;;;;;25.18;67.46;99445.09;5136260;27;19920;-93
2023/10/05 10:24:03;;;;;;;10.45;5.57;;;;;;;25.07;67.00;99431.44;5136787;27;20042;-91
2023/10/05 10:26:31;;;;;;;13.15;6.25;;;;;;;24.91;66.14;99449.91;5137359;27;20126;-94
2023/10/05 10:28:57;;;;;;;9.65;5.82;;;;;;;25.08;66.48;99426.84;5135659;27;20041;-94
2023/10/05 10:31:34;;;;;;;10.23;5.60;;;;;;;25.18;64.96;99428.75;5135132;27;20031;-95
2023/10/05 10:34:11;;;;;;;10.52;5.80;;;;;;;25.08;64.54;99419.53;5135191;27;20080;-94
2023/10/05 10:36:51;;;;;;;10.10;5.65;;;;;;;25.17;65.25;99443.31;5135328;27;20035;-94
2023/10/05 10:42:19;;;;;;;8.60;6.93;;;;;;;25.16;63.75;99417.13;5093443;27;20378;-92
2023/10/05 10:47:44;;;;;;;10.77;5.60;;;;;;;25.37;63.23;99416.44;5143957;27;20381;-94
2023/10/05 10:52:55;;;;;;;7.40;5.50;;;;;;;25.22;62.17;99404.91;5112944;27;20885;-95
2023/10/05 10:55:30;;;;;;;9.10;5.93;;;;;;;24.01;66.05;99405.75;5112815;28;20044;-93
2023/10/05 10:57:57;;;;;;;12.05;6.28;;;;;;;24.32;67.35;99398.97;5110889;28;20128;-95
2023/10/05 11:03:26;;;;;;;7.47;4.88;;;;;;;24.50;64.41;99372.28;5174533;27;20359;-93
2023/10/05 11:05:54;;;;;;;9.10;5.40;;;;;;;24.74;63.93;99377.72;5166719;27;20041;-94
2023/10/05 11:08:21;;;;;;;10.00;5.18;;;;;;;24.98;62.56;99377.69;5178322;27;20099;-94
2023/10/05 11:10:59;;;;;;;10.60;5.93;;;;;;;24.89;62.11;99372.97;5173022;27;20043;-92
2023/10/05 11:13:25;;;;;;;11.93;5.20;;;;;;;24.87;62.09;99369.50;5176441;27;20037;-95
2023/10/05 11:16:00;;;;;;;8.95;5.28;;;;;;;24.78;62.40;99328.41;5176954;27;20031;-94
2023/10/05 11:21:35;;;;;;;10.65;5.03;;;;;;;25.09;60.74;99383.19;5115500;27;20870;-93
2023/10/05 11:24:06;;;;;;;8.15;4.93;;;;;;;25.30;60.90;99372.50;5120896;28;20050;-95
2023/10/05 11:26:35;;;;;;;10.60;5.20;;;;;;;25.46;60.37;99377.63;5117373;28;20479;-95
2023/10/05 11:29:07;;;;;;;9.35;5.07;;;;;;;25.48;59.93;99375.66;5116237;28;20067;-95
2023/10/05 11:31:34;;;;;;;7.03;4.72;;;;;;;25.57;58.83;99363.16;5113004;28;20484;-94
2023/10/05 11:34:03;;;;;;;8.68;4.50;;;;;;;25.64;58.99;99377.16;5114185;28;20062;-93
2023/10/05 11:36:33;;;;;;;5.88;4.10;;;;;;;25.32;59.33;99339.72;5117101;28;20151;-93
2023/10/05 11:39:02;;;;;;;9.48;4.65;;;;;;;25.42;57.95;99336.16;5116766;27;20048;-94
2023/10/05 11:41:28;;;;;;;10.13;4.85;;;;;;;25.28;56.02;99308.28;5119619;28;20050;-94
2023/10/05 11:43:55;;;;;;;6.22;4.07;;;;;;;25.24;55.45;99321.25;5117483;28;20388;-96
2023/10/05 11:46:26;;;;;;;7.25;4.60;;;;;;;25.27;55.75;99310.16;5119769;28;20050;-94
2023/10/05 11:48:55;;;;;;;8.32;4.60;;;;;;;25.09;55.61;99323.34;5120590;28;20040;-95
2023/10/05 11:51:35;;;;;;;8.30;4.18;;;;;;;25.47;55.21;99324.88;5113976;28;20416;-95
2023/10/05 11:54:04;;;;;;;10.45;4.57;;;;;;;25.30;57.04;99300.88;5122302;28;20039;-95
2023/10/05 11:56:31;;;;;;;7.15;4.18;;;;;;;25.53;56.34;99335.31;5114315;28;20044;-94
2023/10/05 11:58:59;;;;;;;12.10;4.47;;;;;;;25.72;54.69;99331.06;5116499;28;20036;-94
2023/10/05 12:01:25;;;;;;;5.70;3.88;;;;;;;25.59;53.92;99321.19;5111786;28;20131;-94
2023/10/05 12:03:51;;;;;;;6.35;4.10;;;;;;;25.67;52.75;99336.03;5124016;28;20074;-95
2023/10/05 12:06:23;;;;;;;6.70;4.03;;;;;;;25.71;54.27;99326.63;5116382;28;20067;-94
2023/10/05 12:08:53;;;;;;;9.18;4.32;;;;;;;25.63;54.53;99302.72;5113849;28;20074;-95
2023/10/05 12:11:23;;;;;;;11.93;5.18;;;;;;;25.73;55.10;99311.03;5117509;28;20051;-94
2023/10/05 12:13:50;;;;;;;6.88;4.20;;;;;;;25.63;54.21;99308.19;5116748;28;20067;-95
2023/10/05 12:16:16;;;;;;;7.57;4.03;;;;;;;25.67;54.00;99303.34;5119059;28;20127;-94
2023/10/05 12:18:43;;;;;;;7.53;4.57;;;;;;;25.60;53.69;99260.28;5123567;28;20036;-94